sensor_id;sensor_type;location;lat;lon;timestamp;P1;durP1;ratioP1;P2;durP2;ratioP2
46745;SDS011;32493;50.514;9.678;2024-03-08T00:00:28;42.72;;;19.48;;
46745;SDS011;32493;50.514;9.678;2024-03-08T00:02:59;39.15;;;19.63;;
46745;SDS011;32493;50.514;9.678;2024-03-08T00:05:32;40.22;;;20.15;;
46745;SDS011;32493;50.514;9.678;2024-03-08T00:08:13;43.53;;;21.27;;
46745;SDS011;32493;50.514;9.678;2024-03-08T00:10:51;40.88;;;19.90;;
46745;SDS011;32493;50.514;9.678;2024-03-08T00:13:24;46.72;;;20.13;;
46745;SDS011;32493;50.514;9.678;2024-03-08T00:15:57;40.17;;;20.10;;
46745;SDS011;32493;50.514;9.678;2024-03-08T00:18:29;47.25;;;21.05;;
46745;SDS011;32493;50.514;9.678;2024-03-08T00:21:04;44.05;;;20.27;;
46745;SDS011;32493;50.514;9.678;2024-03-08T00:23:40;39.90;;;18.75;;
46745;SDS011;32493;50.514;9.678;2024-03-08T00:26:12;42.10;;;20.38;;
46745;SDS011;32493;50.514;9.678;2024-03-08T00:28:55;38.88;;;20.05;;
46745;SDS011;32493;50.514;9.678;2024-03-08T00:31:33;39.20;;;19.17;;
46745;SDS011;32493;50.514;9.678;2024-03-08T00:34:03;46.50;;;18.92;;
46745;SDS011;32493;50.514;9.678;2024-03-08T00:36:38;39.13;;;17.88;;
46745;SDS011;32493;50.514;9.678;2024-03-08T00:39:18;46.40;;;20.95;;
46745;SDS011;32493;50.514;9.678;2024-03-08T00:41:50;44.85;;;18.50;;
46745;SDS011;32493;50.514;9.678;2024-03-08T00:44:23;41.33;;;20.02;;
46745;SDS011;32493;50.514;9.678;2024-03-08T00:46:54;45.90;;;21.77;;
46745;SDS011;32493;50.514;9.678;2024-03-08T00:49:29;43.22;;;19.63;;
46745;SDS011;32493;50.514;9.678;2024-03-08T00:52:01;38.40;;;19.20;;
46745;SDS011;32493;50.514;9.678;2024-03-08T00:54:34;41.63;;;20.63;;
46745;SDS011;32493;50.514;9.678;2024-03-08T00:57:08;44.95;;;20.35;;
46745;SDS011;32493;50.514;9.678;2024-03-08T00:59:42;43.95;;;21.17;;
46745;SDS011;32493;50.514;9.678;2024-03-08T01:02:14;50.08;;;23.58;;
46745;SDS011;32493;50.514;9.678;2024-03-08T01:04:53;59.95;;;30.85;;
46745;SDS011;32493;50.514;9.678;2024-03-08T01:07:30;55.38;;;28.08;;
46745;SDS011;32493;50.514;9.678;2024-03-08T01:10:02;60.53;;;28.52;;
46745;SDS011;32493;50.514;9.678;2024-03-08T01:12:39;52.08;;;25.02;;
46745;SDS011;32493;50.514;9.678;2024-03-08T01:15:17;52.50;;;23.35;;
46745;SDS011;32493;50.514;9.678;2024-03-08T01:17:53;48.90;;;23.52;;
46745;SDS011;32493;50.514;9.678;2024-03-08T01:20:24;43.80;;;21.73;;
46745;SDS011;32493;50.514;9.678;2024-03-08T01:23:07;47.63;;;22.50;;
46745;SDS011;32493;50.514;9.678;2024-03-08T01:25:44;45.42;;;21.65;;
46745;SDS011;32493;50.514;9.678;2024-03-08T01:28:25;45.15;;;22.02;;
46745;SDS011;32493;50.514;9.678;2024-03-08T01:33:33;46.72;;;20.90;;
46745;SDS011;32493;50.514;9.678;2024-03-08T01:36:09;47.75;;;22.27;;
46745;SDS011;32493;50.514;9.678;2024-03-08T01:38:44;46.10;;;20.40;;
46745;SDS011;32493;50.514;9.678;2024-03-08T01:41:17;46.00;;;21.40;;
46745;SDS011;32493;50.514;9.678;2024-03-08T01:44:02;53.25;;;22.13;;
46745;SDS011;32493;50.514;9.678;2024-03-08T01:49:08;49.75;;;21.20;;
46745;SDS011;32493;50.514;9.678;2024-03-08T01:51:41;44.22;;;20.08;;
46745;SDS011;32493;50.514;9.678;2024-03-08T01:54:16;46.25;;;20.75;;
46745;SDS011;32493;50.514;9.678;2024-03-08T01:56:48;44.17;;;20.65;;
46745;SDS011;32493;50.514;9.678;2024-03-08T01:59:22;45.65;;;20.83;;
46745;SDS011;32493;50.514;9.678;2024-03-08T02:02:00;48.75;;;21.90;;
46745;SDS011;32493;50.514;9.678;2024-03-08T02:07:05;50.58;;;21.17;;
46745;SDS011;32493;50.514;9.678;2024-03-08T02:09:37;48.22;;;21.23;;
46745;SDS011;32493;50.514;9.678;2024-03-08T02:12:12;52.03;;;21.90;;
46745;SDS011;32493;50.514;9.678;2024-03-08T02:14:46;47.33;;;22.20;;
46745;SDS011;32493;50.514;9.678;2024-03-08T02:17:21;49.50;;;22.00;;
46745;SDS011;32493;50.514;9.678;2024-03-08T02:19:53;46.75;;;21.30;;
46745;SDS011;32493;50.514;9.678;2024-03-08T02:22:30;49.53;;;21.08;;
46745;SDS011;32493;50.514;9.678;2024-03-08T02:25:02;55.15;;;21.05;;
46745;SDS011;32493;50.514;9.678;2024-03-08T02:27:37;52.35;;;22.42;;
46745;SDS011;32493;50.514;9.678;2024-03-08T02:30:09;43.25;;;20.80;;
46745;SDS011;32493;50.514;9.678;2024-03-08T02:32:43;49.65;;;22.95;;
46745;SDS011;32493;50.514;9.678;2024-03-08T02:35:15;50.72;;;21.70;;
46745;SDS011;32493;50.514;9.678;2024-03-08T02:37:50;49.28;;;23.02;;
46745;SDS011;32493;50.514;9.678;2024-03-08T02:40:22;45.25;;;21.67;;
46745;SDS011;32493;50.514;9.678;2024-03-08T02:42:52;52.83;;;22.40;;
46745;SDS011;32493;50.514;9.678;2024-03-08T02:45:26;48.83;;;20.98;;
46745;SDS011;32493;50.514;9.678;2024-03-08T02:47:59;49.20;;;21.45;;
46745;SDS011;32493;50.514;9.678;2024-03-08T02:50:34;48.90;;;20.75;;
46745;SDS011;32493;50.514;9.678;2024-03-08T02:53:07;53.65;;;21.00;;
46745;SDS011;32493;50.514;9.678;2024-03-08T02:55:41;47.30;;;20.58;;
46745;SDS011;32493;50.514;9.678;2024-03-08T02:58:13;49.28;;;21.17;;
46745;SDS011;32493;50.514;9.678;2024-03-08T03:00:45;51.83;;;21.25;;
46745;SDS011;32493;50.514;9.678;2024-03-08T03:03:25;44.67;;;20.27;;
46745;SDS011;32493;50.514;9.678;2024-03-08T03:05:56;49.17;;;21.20;;
46745;SDS011;32493;50.514;9.678;2024-03-08T03:08:31;46.55;;;20.25;;
46745;SDS011;32493;50.514;9.678;2024-03-08T03:11:02;51.05;;;22.02;;
46745;SDS011;32493;50.514;9.678;2024-03-08T03:13:40;45.83;;;20.75;;
46745;SDS011;32493;50.514;9.678;2024-03-08T03:16:19;51.85;;;22.55;;
46745;SDS011;32493;50.514;9.678;2024-03-08T03:18:50;51.25;;;21.33;;
46745;SDS011;32493;50.514;9.678;2024-03-08T03:21:21;53.92;;;20.58;;
46745;SDS011;32493;50.514;9.678;2024-03-08T03:24:01;49.80;;;20.65;;
46745;SDS011;32493;50.514;9.678;2024-03-08T03:26:37;47.70;;;21.85;;
46745;SDS011;32493;50.514;9.678;2024-03-08T03:29:10;60.58;;;22.08;;
46745;SDS011;32493;50.514;9.678;2024-03-08T03:31:42;49.85;;;21.30;;
46745;SDS011;32493;50.514;9.678;2024-03-08T03:34:15;52.42;;;22.65;;
46745;SDS011;32493;50.514;9.678;2024-03-08T03:36:49;49.92;;;21.75;;
46745;SDS011;32493;50.514;9.678;2024-03-08T03:39:27;49.35;;;20.08;;
46745;SDS011;32493;50.514;9.678;2024-03-08T03:41:59;52.28;;;22.17;;
46745;SDS011;32493;50.514;9.678;2024-03-08T03:44:30;52.20;;;22.27;;
46745;SDS011;32493;50.514;9.678;2024-03-08T03:47:02;53.55;;;21.25;;
46745;SDS011;32493;50.514;9.678;2024-03-08T03:49:33;47.15;;;20.55;;
46745;SDS011;32493;50.514;9.678;2024-03-08T03:52:07;49.78;;;21.33;;
46745;SDS011;32493;50.514;9.678;2024-03-08T03:54:45;53.00;;;22.08;;
46745;SDS011;32493;50.514;9.678;2024-03-08T03:57:16;50.30;;;21.23;;
46745;SDS011;32493;50.514;9.678;2024-03-08T03:59:50;47.10;;;20.65;;
46745;SDS011;32493;50.514;9.678;2024-03-08T04:02:21;57.80;;;22.23;;
46745;SDS011;32493;50.514;9.678;2024-03-08T04:04:55;48.95;;;21.58;;
46745;SDS011;32493;50.514;9.678;2024-03-08T04:07:28;50.15;;;20.70;;
46745;SDS011;32493;50.514;9.678;2024-03-08T04:10:06;51.05;;;21.80;;
46745;SDS011;32493;50.514;9.678;2024-03-08T04:12:40;57.33;;;22.83;;
46745;SDS011;32493;50.514;9.678;2024-03-08T04:15:13;52.55;;;22.38;;
46745;SDS011;32493;50.514;9.678;2024-03-08T04:17:44;54.92;;;21.67;;
46745;SDS011;32493;50.514;9.678;2024-03-08T04:20:16;49.75;;;21.48;;
46745;SDS011;32493;50.514;9.678;2024-03-08T04:22:49;50.47;;;22.25;;
46745;SDS011;32493;50.514;9.678;2024-03-08T04:25:22;54.10;;;21.92;;
46745;SDS011;32493;50.514;9.678;2024-03-08T04:27:54;59.42;;;23.67;;
46745;SDS011;32493;50.514;9.678;2024-03-08T04:30:27;54.20;;;23.02;;
46745;SDS011;32493;50.514;9.678;2024-03-08T04:33:02;49.20;;;21.13;;
46745;SDS011;32493;50.514;9.678;2024-03-08T04:35:33;56.83;;;22.55;;
46745;SDS011;32493;50.514;9.678;2024-03-08T04:38:03;56.38;;;22.70;;
46745;SDS011;32493;50.514;9.678;2024-03-08T04:40:38;61.00;;;23.88;;
46745;SDS011;32493;50.514;9.678;2024-03-08T04:43:08;51.85;;;21.95;;
46745;SDS011;32493;50.514;9.678;2024-03-08T04:45:40;56.08;;;22.58;;
46745;SDS011;32493;50.514;9.678;2024-03-08T04:48:13;53.85;;;22.33;;
46745;SDS011;32493;50.514;9.678;2024-03-08T04:50:45;50.58;;;22.40;;
46745;SDS011;32493;50.514;9.678;2024-03-08T04:53:16;63.17;;;22.88;;
46745;SDS011;32493;50.514;9.678;2024-03-08T04:55:51;54.67;;;23.02;;
46745;SDS011;32493;50.514;9.678;2024-03-08T04:58:26;56.72;;;22.85;;
46745;SDS011;32493;50.514;9.678;2024-03-08T05:00:56;52.00;;;23.02;;
46745;SDS011;32493;50.514;9.678;2024-03-08T05:03:27;57.92;;;24.05;;
46745;SDS011;32493;50.514;9.678;2024-03-08T05:05:57;55.70;;;21.60;;
46745;SDS011;32493;50.514;9.678;2024-03-08T05:08:34;57.80;;;23.27;;
46745;SDS011;32493;50.514;9.678;2024-03-08T05:11:07;54.13;;;22.13;;
46745;SDS011;32493;50.514;9.678;2024-03-08T05:13:43;57.35;;;23.35;;
46745;SDS011;32493;50.514;9.678;2024-03-08T05:16:25;60.25;;;24.45;;
46745;SDS011;32493;50.514;9.678;2024-03-08T05:19:00;56.05;;;22.10;;
46745;SDS011;32493;50.514;9.678;2024-03-08T05:21:33;61.53;;;23.77;;
46745;SDS011;32493;50.514;9.678;2024-03-08T05:24:18;54.63;;;22.60;;
46745;SDS011;32493;50.514;9.678;2024-03-08T05:26:52;53.78;;;22.98;;
46745;SDS011;32493;50.514;9.678;2024-03-08T05:29:23;64.32;;;24.17;;
46745;SDS011;32493;50.514;9.678;2024-03-08T05:31:54;50.70;;;20.00;;
46745;SDS011;32493;50.514;9.678;2024-03-08T05:34:24;55.63;;;22.80;;
46745;SDS011;32493;50.514;9.678;2024-03-08T05:36:56;65.97;;;25.10;;
46745;SDS011;32493;50.514;9.678;2024-03-08T05:39:35;57.17;;;23.60;;
46745;SDS011;32493;50.514;9.678;2024-03-08T05:42:11;55.03;;;22.65;;
46745;SDS011;32493;50.514;9.678;2024-03-08T05:44:41;59.15;;;23.23;;
46745;SDS011;32493;50.514;9.678;2024-03-08T05:47:14;57.50;;;23.38;;
46745;SDS011;32493;50.514;9.678;2024-03-08T05:49:47;56.63;;;22.48;;
46745;SDS011;32493;50.514;9.678;2024-03-08T05:52:22;55.85;;;22.77;;
46745;SDS011;32493;50.514;9.678;2024-03-08T05:54:54;56.53;;;23.60;;
46745;SDS011;32493;50.514;9.678;2024-03-08T05:57:30;58.47;;;22.60;;
46745;SDS011;32493;50.514;9.678;2024-03-08T06:00:05;60.97;;;23.92;;
46745;SDS011;32493;50.514;9.678;2024-03-08T06:02:37;61.80;;;23.80;;
46745;SDS011;32493;50.514;9.678;2024-03-08T06:05:09;57.92;;;22.55;;
46745;SDS011;32493;50.514;9.678;2024-03-08T06:07:42;58.50;;;23.02;;
46745;SDS011;32493;50.514;9.678;2024-03-08T06:10:12;54.88;;;22.67;;
46745;SDS011;32493;50.514;9.678;2024-03-08T06:12:48;54.83;;;22.08;;
46745;SDS011;32493;50.514;9.678;2024-03-08T06:15:18;63.65;;;23.17;;
46745;SDS011;32493;50.514;9.678;2024-03-08T06:17:50;56.20;;;22.80;;
46745;SDS011;32493;50.514;9.678;2024-03-08T06:20:23;61.72;;;23.83;;
46745;SDS011;32493;50.514;9.678;2024-03-08T06:22:54;54.38;;;23.20;;
46745;SDS011;32493;50.514;9.678;2024-03-08T06:25:24;57.33;;;24.42;;
46745;SDS011;32493;50.514;9.678;2024-03-08T06:27:59;64.47;;;23.77;;
46745;SDS011;32493;50.514;9.678;2024-03-08T06:30:42;58.03;;;22.10;;
46745;SDS011;32493;50.514;9.678;2024-03-08T06:33:12;58.70;;;22.05;;
46745;SDS011;32493;50.514;9.678;2024-03-08T06:35:47;52.38;;;20.30;;
46745;SDS011;32493;50.514;9.678;2024-03-08T06:38:19;56.10;;;22.83;;
46745;SDS011;32493;50.514;9.678;2024-03-08T06:40:49;51.47;;;21.25;;
46745;SDS011;32493;50.514;9.678;2024-03-08T06:43:24;52.00;;;20.75;;
46745;SDS011;32493;50.514;9.678;2024-03-08T06:46:02;51.85;;;21.90;;
46745;SDS011;32493;50.514;9.678;2024-03-08T06:48:34;50.95;;;21.58;;
46745;SDS011;32493;50.514;9.678;2024-03-08T06:51:07;55.53;;;21.58;;
46745;SDS011;32493;50.514;9.678;2024-03-08T06:53:38;60.22;;;23.80;;
46745;SDS011;32493;50.514;9.678;2024-03-08T06:56:10;58.97;;;24.73;;
46745;SDS011;32493;50.514;9.678;2024-03-08T06:58:44;57.65;;;23.60;;
46745;SDS011;32493;50.514;9.678;2024-03-08T07:01:15;53.33;;;22.00;;
46745;SDS011;32493;50.514;9.678;2024-03-08T07:03:45;58.03;;;23.25;;
46745;SDS011;32493;50.514;9.678;2024-03-08T07:06:19;56.72;;;23.65;;
46745;SDS011;32493;50.514;9.678;2024-03-08T07:08:50;53.38;;;23.33;;
46745;SDS011;32493;50.514;9.678;2024-03-08T07:11:27;57.60;;;22.92;;
46745;SDS011;32493;50.514;9.678;2024-03-08T07:14:06;55.05;;;23.48;;
46745;SDS011;32493;50.514;9.678;2024-03-08T07:16:40;50.83;;;22.67;;
46745;SDS011;32493;50.514;9.678;2024-03-08T07:19:13;54.05;;;22.02;;
46745;SDS011;32493;50.514;9.678;2024-03-08T07:21:43;55.28;;;22.63;;
46745;SDS011;32493;50.514;9.678;2024-03-08T07:24:14;44.60;;;18.67;;
46745;SDS011;32493;50.514;9.678;2024-03-08T07:27:11;45.05;;;19.02;;
46745;SDS011;32493;50.514;9.678;2024-03-08T07:29:47;50.42;;;20.58;;
46745;SDS011;32493;50.514;9.678;2024-03-08T07:32:35;45.95;;;19.55;;
46745;SDS011;32493;50.514;9.678;2024-03-08T07:35:07;45.50;;;19.17;;
46745;SDS011;32493;50.514;9.678;2024-03-08T07:37:40;41.20;;;18.40;;
46745;SDS011;32493;50.514;9.678;2024-03-08T07:40:13;37.33;;;16.00;;
46745;SDS011;32493;50.514;9.678;2024-03-08T07:42:44;39.40;;;18.10;;
46745;SDS011;32493;50.514;9.678;2024-03-08T07:45:17;36.67;;;17.92;;
46745;SDS011;32493;50.514;9.678;2024-03-08T07:47:48;38.15;;;16.98;;
46745;SDS011;32493;50.514;9.678;2024-03-08T07:50:23;33.22;;;15.63;;
46745;SDS011;32493;50.514;9.678;2024-03-08T07:52:56;39.60;;;18.55;;
46745;SDS011;32493;50.514;9.678;2024-03-08T07:55:33;34.95;;;16.42;;
46745;SDS011;32493;50.514;9.678;2024-03-08T07:58:07;34.63;;;16.08;;
46745;SDS011;32493;50.514;9.678;2024-03-08T08:00:43;35.72;;;16.05;;
46745;SDS011;32493;50.514;9.678;2024-03-08T08:03:15;36.65;;;16.95;;
46745;SDS011;32493;50.514;9.678;2024-03-08T08:05:50;35.67;;;17.15;;
46745;SDS011;32493;50.514;9.678;2024-03-08T08:08:27;36.83;;;15.80;;
46745;SDS011;32493;50.514;9.678;2024-03-08T08:11:01;37.55;;;16.38;;
46745;SDS011;32493;50.514;9.678;2024-03-08T08:13:33;34.90;;;16.63;;
46745;SDS011;32493;50.514;9.678;2024-03-08T08:16:11;33.25;;;16.33;;
46745;SDS011;32493;50.514;9.678;2024-03-08T08:18:41;36.45;;;14.82;;
46745;SDS011;32493;50.514;9.678;2024-03-08T08:21:15;34.65;;;15.93;;
46745;SDS011;32493;50.514;9.678;2024-03-08T08:23:50;29.42;;;15.05;;
46745;SDS011;32493;50.514;9.678;2024-03-08T08:26:24;28.88;;;13.68;;
46745;SDS011;32493;50.514;9.678;2024-03-08T08:28:54;34.47;;;15.48;;
46745;SDS011;32493;50.514;9.678;2024-03-08T08:31:31;32.08;;;15.82;;
46745;SDS011;32493;50.514;9.678;2024-03-08T08:34:08;32.47;;;15.23;;
46745;SDS011;32493;50.514;9.678;2024-03-08T08:36:40;28.60;;;14.05;;
46745;SDS011;32493;50.514;9.678;2024-03-08T08:39:12;33.40;;;14.95;;
46745;SDS011;32493;50.514;9.678;2024-03-08T08:41:44;29.25;;;14.07;;
46745;SDS011;32493;50.514;9.678;2024-03-08T08:44:20;29.17;;;14.10;;
46745;SDS011;32493;50.514;9.678;2024-03-08T08:46:52;29.27;;;14.32;;
46745;SDS011;32493;50.514;9.678;2024-03-08T08:49:36;31.58;;;14.80;;
46745;SDS011;32493;50.514;9.678;2024-03-08T08:52:10;32.60;;;14.43;;
46745;SDS011;32493;50.514;9.678;2024-03-08T08:54:45;27.98;;;13.55;;
46745;SDS011;32493;50.514;9.678;2024-03-08T08:57:23;32.63;;;15.55;;
46745;SDS011;32493;50.514;9.678;2024-03-08T08:59:53;30.98;;;14.43;;
46745;SDS011;32493;50.514;9.678;2024-03-08T09:02:41;28.65;;;14.15;;
46745;SDS011;32493;50.514;9.678;2024-03-08T09:05:14;32.10;;;15.35;;
46745;SDS011;32493;50.514;9.678;2024-03-08T09:07:55;30.67;;;14.55;;
46745;SDS011;32493;50.514;9.678;2024-03-08T09:10:28;29.10;;;13.20;;
46745;SDS011;32493;50.514;9.678;2024-03-08T09:13:04;28.00;;;13.80;;
46745;SDS011;32493;50.514;9.678;2024-03-08T09:15:44;28.27;;;13.30;;
46745;SDS011;32493;50.514;9.678;2024-03-08T09:18:24;29.63;;;13.70;;
46745;SDS011;32493;50.514;9.678;2024-03-08T09:20:58;28.77;;;14.20;;
46745;SDS011;32493;50.514;9.678;2024-03-08T09:23:37;28.65;;;14.73;;
46745;SDS011;32493;50.514;9.678;2024-03-08T09:26:12;26.83;;;14.35;;
46745;SDS011;32493;50.514;9.678;2024-03-08T09:28:55;27.85;;;13.45;;
46745;SDS011;32493;50.514;9.678;2024-03-08T09:31:28;27.55;;;13.93;;
46745;SDS011;32493;50.514;9.678;2024-03-08T09:34:04;28.65;;;13.57;;
46745;SDS011;32493;50.514;9.678;2024-03-08T09:36:41;28.42;;;13.77;;
46745;SDS011;32493;50.514;9.678;2024-03-08T09:39:19;29.33;;;13.73;;
46745;SDS011;32493;50.514;9.678;2024-03-08T09:41:54;25.38;;;13.50;;
46745;SDS011;32493;50.514;9.678;2024-03-08T09:44:28;25.00;;;12.70;;
46745;SDS011;32493;50.514;9.678;2024-03-08T09:47:02;25.83;;;11.10;;
46745;SDS011;32493;50.514;9.678;2024-03-08T09:49:36;24.27;;;13.02;;
46745;SDS011;32493;50.514;9.678;2024-03-08T09:52:08;24.38;;;12.55;;
46745;SDS011;32493;50.514;9.678;2024-03-08T09:54:40;22.35;;;11.98;;
46745;SDS011;32493;50.514;9.678;2024-03-08T09:57:11;22.17;;;11.07;;
46745;SDS011;32493;50.514;9.678;2024-03-08T09:59:47;23.48;;;12.43;;
46745;SDS011;32493;50.514;9.678;2024-03-08T10:02:27;25.27;;;12.27;;
46745;SDS011;32493;50.514;9.678;2024-03-08T10:05:06;25.83;;;12.45;;
46745;SDS011;32493;50.514;9.678;2024-03-08T10:07:40;19.52;;;10.57;;
46745;SDS011;32493;50.514;9.678;2024-03-08T10:10:13;22.77;;;10.95;;
46745;SDS011;32493;50.514;9.678;2024-03-08T10:12:47;23.48;;;11.05;;
46745;SDS011;32493;50.514;9.678;2024-03-08T10:15:21;25.13;;;13.07;;
46745;SDS011;32493;50.514;9.678;2024-03-08T10:17:51;22.77;;;12.48;;
46745;SDS011;32493;50.514;9.678;2024-03-08T10:20:26;23.35;;;12.32;;
46745;SDS011;32493;50.514;9.678;2024-03-08T10:23:01;23.08;;;12.32;;
46745;SDS011;32493;50.514;9.678;2024-03-08T10:25:40;22.55;;;11.70;;
46745;SDS011;32493;50.514;9.678;2024-03-08T10:28:19;24.60;;;13.02;;
46745;SDS011;32493;50.514;9.678;2024-03-08T10:30:54;26.42;;;13.05;;
46745;SDS011;32493;50.514;9.678;2024-03-08T10:33:32;25.42;;;12.10;;
46745;SDS011;32493;50.514;9.678;2024-03-08T10:36:11;22.23;;;12.13;;
46745;SDS011;32493;50.514;9.678;2024-03-08T10:38:43;26.02;;;12.93;;
46745;SDS011;32493;50.514;9.678;2024-03-08T10:41:16;24.20;;;13.43;;
46745;SDS011;32493;50.514;9.678;2024-03-08T10:44:02;24.95;;;13.35;;
46745;SDS011;32493;50.514;9.678;2024-03-08T10:46:45;25.65;;;12.52;;
46745;SDS011;32493;50.514;9.678;2024-03-08T10:49:30;21.92;;;11.52;;
46745;SDS011;32493;50.514;9.678;2024-03-08T10:52:07;23.13;;;12.75;;
46745;SDS011;32493;50.514;9.678;2024-03-08T10:54:40;23.38;;;12.27;;
46745;SDS011;32493;50.514;9.678;2024-03-08T10:57:14;24.38;;;12.48;;
46745;SDS011;32493;50.514;9.678;2024-03-08T10:59:47;26.33;;;13.43;;
46745;SDS011;32493;50.514;9.678;2024-03-08T11:02:25;21.58;;;12.60;;
46745;SDS011;32493;50.514;9.678;2024-03-08T11:05:00;26.17;;;14.00;;
46745;SDS011;32493;50.514;9.678;2024-03-08T11:07:44;22.60;;;11.85;;
46745;SDS011;32493;50.514;9.678;2024-03-08T11:10:19;24.13;;;12.40;;
46745;SDS011;32493;50.514;9.678;2024-03-08T11:12:53;24.70;;;13.05;;
46745;SDS011;32493;50.514;9.678;2024-03-08T11:15:26;22.70;;;12.32;;
46745;SDS011;32493;50.514;9.678;2024-03-08T11:17:58;22.60;;;12.20;;
46745;SDS011;32493;50.514;9.678;2024-03-08T11:20:35;21.73;;;12.35;;
46745;SDS011;32493;50.514;9.678;2024-03-08T11:23:10;25.05;;;12.80;;
46745;SDS011;32493;50.514;9.678;2024-03-08T11:25:46;22.77;;;12.48;;
46745;SDS011;32493;50.514;9.678;2024-03-08T11:28:20;20.52;;;11.45;;
46745;SDS011;32493;50.514;9.678;2024-03-08T11:33:55;22.80;;;12.60;;
46745;SDS011;32493;50.514;9.678;2024-03-08T11:36:28;22.10;;;12.65;;
46745;SDS011;32493;50.514;9.678;2024-03-08T11:39:08;19.55;;;11.27;;
46745;SDS011;32493;50.514;9.678;2024-03-08T11:41:48;19.10;;;10.80;;
46745;SDS011;32493;50.514;9.678;2024-03-08T11:44:21;24.33;;;13.20;;
46745;SDS011;32493;50.514;9.678;2024-03-08T11:46:58;23.30;;;12.98;;
46745;SDS011;32493;50.514;9.678;2024-03-08T11:49:31;22.33;;;12.82;;
46745;SDS011;32493;50.514;9.678;2024-03-08T11:52:02;22.67;;;12.40;;
46745;SDS011;32493;50.514;9.678;2024-03-08T11:54:37;22.15;;;13.02;;
46745;SDS011;32493;50.514;9.678;2024-03-08T11:57:13;26.77;;;13.65;;
46745;SDS011;32493;50.514;9.678;2024-03-08T11:59:49;21.85;;;13.35;;
46745;SDS011;32493;50.514;9.678;2024-03-08T12:04:58;27.17;;;14.05;;
46745;SDS011;32493;50.514;9.678;2024-03-08T12:07:31;25.23;;;14.07;;
46745;SDS011;32493;50.514;9.678;2024-03-08T12:10:19;25.02;;;13.35;;
46745;SDS011;32493;50.514;9.678;2024-03-08T12:12:54;26.33;;;12.68;;
46745;SDS011;32493;50.514;9.678;2024-03-08T12:15:27;25.75;;;13.25;;
46745;SDS011;32493;50.514;9.678;2024-03-08T12:20:37;26.27;;;13.55;;
46745;SDS011;32493;50.514;9.678;2024-03-08T12:23:18;24.98;;;14.30;;
46745;SDS011;32493;50.514;9.678;2024-03-08T12:25:56;23.83;;;12.77;;
46745;SDS011;32493;50.514;9.678;2024-03-08T12:28:31;25.42;;;13.90;;
46745;SDS011;32493;50.514;9.678;2024-03-08T12:31:04;27.60;;;13.45;;
46745;SDS011;32493;50.514;9.678;2024-03-08T12:33:47;24.50;;;13.60;;
46745;SDS011;32493;50.514;9.678;2024-03-08T12:36:25;26.05;;;13.60;;
46745;SDS011;32493;50.514;9.678;2024-03-08T12:38:57;23.50;;;13.73;;
46745;SDS011;32493;50.514;9.678;2024-03-08T12:41:38;24.80;;;14.13;;
46745;SDS011;32493;50.514;9.678;2024-03-08T12:44:16;24.23;;;13.60;;
46745;SDS011;32493;50.514;9.678;2024-03-08T12:46:51;26.42;;;15.00;;
46745;SDS011;32493;50.514;9.678;2024-03-08T12:49:25;22.45;;;13.43;;
46745;SDS011;32493;50.514;9.678;2024-03-08T12:51:59;22.38;;;13.05;;
46745;SDS011;32493;50.514;9.678;2024-03-08T12:54:31;20.70;;;13.23;;
46745;SDS011;32493;50.514;9.678;2024-03-08T12:57:08;18.58;;;12.70;;
46745;SDS011;32493;50.514;9.678;2024-03-08T12:59:40;22.67;;;13.35;;
46745;SDS011;32493;50.514;9.678;2024-03-08T13:02:14;21.55;;;13.43;;
46745;SDS011;32493;50.514;9.678;2024-03-08T13:04:49;23.65;;;13.60;;
46745;SDS011;32493;50.514;9.678;2024-03-08T13:07:29;20.38;;;12.95;;
46745;SDS011;32493;50.514;9.678;2024-03-08T13:10:03;20.60;;;12.93;;
46745;SDS011;32493;50.514;9.678;2024-03-08T13:12:38;18.83;;;13.18;;
46745;SDS011;32493;50.514;9.678;2024-03-08T13:15:21;21.77;;;12.85;;
46745;SDS011;32493;50.514;9.678;2024-03-08T13:17:58;17.20;;;12.05;;
46745;SDS011;32493;50.514;9.678;2024-03-08T13:20:34;17.92;;;12.35;;
46745;SDS011;32493;50.514;9.678;2024-03-08T13:23:15;16.88;;;12.38;;
46745;SDS011;32493;50.514;9.678;2024-03-08T13:25:50;18.02;;;13.20;;
46745;SDS011;32493;50.514;9.678;2024-03-08T13:28:27;18.73;;;13.02;;
46745;SDS011;32493;50.514;9.678;2024-03-08T13:31:10;20.95;;;14.02;;
46745;SDS011;32493;50.514;9.678;2024-03-08T13:33:44;16.88;;;13.52;;
46745;SDS011;32493;50.514;9.678;2024-03-08T13:36:20;19.30;;;13.23;;
46745;SDS011;32493;50.514;9.678;2024-03-08T13:38:58;18.52;;;13.57;;
46745;SDS011;32493;50.514;9.678;2024-03-08T13:41:45;20.52;;;13.57;;
46745;SDS011;32493;50.514;9.678;2024-03-08T13:44:20;22.00;;;13.95;;
46745;SDS011;32493;50.514;9.678;2024-03-08T13:46:56;18.10;;;12.75;;
46745;SDS011;32493;50.514;9.678;2024-03-08T13:49:33;15.37;;;12.33;;
46745;SDS011;32493;50.514;9.678;2024-03-08T13:52:05;18.63;;;13.38;;
46745;SDS011;32493;50.514;9.678;2024-03-08T13:54:40;17.92;;;13.88;;
46745;SDS011;32493;50.514;9.678;2024-03-08T13:57:13;17.17;;;13.07;;
46745;SDS011;32493;50.514;9.678;2024-03-08T13:59:51;16.50;;;12.93;;
46745;SDS011;32493;50.514;9.678;2024-03-08T14:02:28;15.27;;;12.27;;
46745;SDS011;32493;50.514;9.678;2024-03-08T14:04:59;19.95;;;12.80;;
46745;SDS011;32493;50.514;9.678;2024-03-08T14:07:32;18.50;;;13.02;;
46745;SDS011;32493;50.514;9.678;2024-03-08T14:10:05;17.23;;;13.00;;
46745;SDS011;32493;50.514;9.678;2024-03-08T14:12:37;17.60;;;13.30;;
46745;SDS011;32493;50.514;9.678;2024-03-08T14:15:12;16.38;;;12.98;;
46745;SDS011;32493;50.514;9.678;2024-03-08T14:17:52;17.95;;;13.18;;
46745;SDS011;32493;50.514;9.678;2024-03-08T14:20:25;16.23;;;14.00;;
46745;SDS011;32493;50.514;9.678;2024-03-08T14:22:58;16.33;;;13.02;;
46745;SDS011;32493;50.514;9.678;2024-03-08T14:25:30;17.55;;;13.23;;
46745;SDS011;32493;50.514;9.678;2024-03-08T14:28:03;15.60;;;13.10;;
46745;SDS011;32493;50.514;9.678;2024-03-08T14:30:40;17.27;;;13.50;;
46745;SDS011;32493;50.514;9.678;2024-03-08T14:33:15;16.00;;;12.85;;
46745;SDS011;32493;50.514;9.678;2024-03-08T14:35:49;15.00;;;12.82;;
46745;SDS011;32493;50.514;9.678;2024-03-08T14:38:27;17.75;;;14.27;;
46745;SDS011;32493;50.514;9.678;2024-03-08T14:41:03;16.02;;;13.02;;
46745;SDS011;32493;50.514;9.678;2024-03-08T14:43:35;16.63;;;13.05;;
46745;SDS011;32493;50.514;9.678;2024-03-08T14:46:13;16.50;;;13.45;;
46745;SDS011;32493;50.514;9.678;2024-03-08T14:48:44;16.55;;;13.02;;
46745;SDS011;32493;50.514;9.678;2024-03-08T14:51:18;16.63;;;13.05;;
46745;SDS011;32493;50.514;9.678;2024-03-08T14:53:53;17.48;;;13.68;;
46745;SDS011;32493;50.514;9.678;2024-03-08T14:56:29;16.83;;;12.93;;
46745;SDS011;32493;50.514;9.678;2024-03-08T14:59:02;20.10;;;13.15;;
46745;SDS011;32493;50.514;9.678;2024-03-08T15:01:40;16.73;;;13.48;;
46745;SDS011;32493;50.514;9.678;2024-03-08T15:04:13;16.77;;;13.60;;
46745;SDS011;32493;50.514;9.678;2024-03-08T15:06:48;18.85;;;13.38;;
46745;SDS011;32493;50.514;9.678;2024-03-08T15:09:22;17.63;;;12.70;;
46745;SDS011;32493;50.514;9.678;2024-03-08T15:11:54;16.98;;;12.35;;
46745;SDS011;32493;50.514;9.678;2024-03-08T15:14:25;17.17;;;13.07;;
46745;SDS011;32493;50.514;9.678;2024-03-08T15:17:00;18.00;;;13.13;;
46745;SDS011;32493;50.514;9.678;2024-03-08T15:19:40;17.42;;;13.07;;